sensor_id;sensor_type;location;lat;lon;timestamp;pressure;altitude;pressure_sealevel;temperature;humidity
20019;BME280;10170;42.502;26.526;2022-11-06T00:01:09;99625.03;;;11.79;100.00
20019;BME280;10170;42.502;26.526;2022-11-06T00:03:36;99622.09;;;11.94;100.00
20019;BME280;10170;42.502;26.526;2022-11-06T00:06:14;99613.97;;;12.07;100.00
20019;BME280;10170;42.502;26.526;2022-11-06T00:09:02;99616.56;;;12.20;100.00
20019;BME280;10170;42.502;26.526;2022-11-06T00:11:29;99624.78;;;12.43;100.00
20019;BME280;10170;42.502;26.526;2022-11-06T00:13:57;99625.84;;;12.35;100.00
20019;BME280;10170;42.502;26.526;2022-11-06T00:16:25;99626.38;;;12.19;100.00
20019;BME280;10170;42.502;26.526;2022-11-06T00:18:52;99622.31;;;12.17;100.00
20019;BME280;10170;42.502;26.526;2022-11-06T00:21:22;99619.06;;;11.84;100.00
20019;BME280;10170;42.502;26.526;2022-11-06T00:23:50;99614.31;;;11.48;100.00
20019;BME280;10170;42.502;26.526;2022-11-06T00:26:22;99593.94;;;11.22;100.00
20019;BME280;10170;42.502;26.526;2022-11-06T00:28:49;99604.78;;;11.21;100.00
20019;BME280;10170;42.502;26.526;2022-11-06T00:31:29;99607.06;;;11.24;100.00
20019;BME280;10170;42.502;26.526;2022-11-06T00:33:57;99603.78;;;11.15;100.00
20019;BME280;10170;42.502;26.526;2022-11-06T00:36:25;99613.66;;;11.08;100.00
20019;BME280;10170;42.502;26.526;2022-11-06T00:38:53;99610.75;;;11.16;100.00
20019;BME280;10170;42.502;26.526;2022-11-06T00:41:22;99614.69;;;11.01;100.00
20019;BME280;10170;42.502;26.526;2022-11-06T00:43:50;99613.50;;;10.97;100.00
20019;BME280;10170;42.502;26.526;2022-11-06T00:46:17;99614.44;;;11.22;100.00
20019;BME280;10170;42.502;26.526;2022-11-06T00:48:45;99612.53;;;11.35;100.00
20019;BME280;10170;42.502;26.526;2022-11-06T00:51:14;99608.59;;;11.44;100.00
20019;BME280;10170;42.502;26.526;2022-11-06T00:53:42;99606.75;;;11.45;100.00
20019;BME280;10170;42.502;26.526;2022-11-06T00:56:11;99614.41;;;11.73;100.00
20019;BME280;10170;42.502;26.526;2022-11-06T00:58:39;99605.19;;;11.75;100.00
20019;BME280;10170;42.502;26.526;2022-11-06T01:01:14;99606.66;;;11.58;100.00
20019;BME280;10170;42.502;26.526;2022-11-06T01:03:42;99619.97;;;11.58;100.00
20019;BME280;10170;42.502;26.526;2022-11-06T01:06:12;99612.66;;;11.53;100.00
20019;BME280;10170;42.502;26.526;2022-11-06T01:08:40;99627.31;;;11.25;100.00
20019;BME280;10170;42.502;26.526;2022-11-06T01:11:22;99618.09;;;11.21;100.00
20019;BME280;10170;42.502;26.526;2022-11-06T01:13:51;99618.97;;;11.15;100.00
20019;BME280;10170;42.502;26.526;2022-11-06T01:16:18;99609.91;;;11.22;100.00
20019;BME280;10170;42.502;26.526;2022-11-06T01:18:46;99606.38;;;11.35;100.00
20019;BME280;10170;42.502;26.526;2022-11-06T01:21:15;99606.97;;;11.37;100.00
20019;BME280;10170;42.502;26.526;2022-11-06T01:23:43;99599.78;;;11.44;100.00
20019;BME280;10170;42.502;26.526;2022-11-06T01:26:11;99608.75;;;11.49;100.00
20019;BME280;10170;42.502;26.526;2022-11-06T01:28:39;99607.53;;;11.52;100.00
20019;BME280;10170;42.502;26.526;2022-11-06T01:31:12;99605.09;;;11.50;100.00
20019;BME280;10170;42.502;26.526;2022-11-06T01:33:39;99610.56;;;11.69;100.00
20019;BME280;10170;42.502;26.526;2022-11-06T01:36:08;99605.63;;;11.72;100.00
20019;BME280;10170;42.502;26.526;2022-11-06T01:38:38;99604.00;;;11.58;100.00
20019;BME280;10170;42.502;26.526;2022-11-06T01:41:05;99608.75;;;11.56;100.00
20019;BME280;10170;42.502;26.526;2022-11-06T01:43:50;99604.84;;;11.65;100.00
20019;BME280;10170;42.502;26.526;2022-11-06T01:46:18;99608.66;;;11.76;100.00
20019;BME280;10170;42.502;26.526;2022-11-06T01:48:51;99609.66;;;11.81;100.00
20019;BME280;10170;42.502;26.526;2022-11-06T01:51:20;99608.84;;;11.81;100.00
20019;BME280;10170;42.502;26.526;2022-11-06T01:53:49;99593.91;;;11.73;100.00
20019;BME280;10170;42.502;26.526;2022-11-06T01:56:17;99610.22;;;11.83;100.00
20019;BME280;10170;42.502;26.526;2022-11-06T01:58:45;99610.44;;;11.82;100.00
20019;BME280;10170;42.502;26.526;2022-11-06T02:01:13;99610.22;;;11.83;100.00
20019;BME280;10170;42.502;26.526;2022-11-06T02:03:45;99610.13;;;11.72;100.00
20019;BME280;10170;42.502;26.526;2022-11-06T02:06:14;99603.41;;;11.56;100.00
20019;BME280;10170;42.502;26.526;2022-11-06T02:08:41;99609.94;;;11.67;100.00
20019;BME280;10170;42.502;26.526;2022-11-06T02:11:08;99610.06;;;11.78;100.00
20019;BME280;10170;42.502;26.526;2022-11-06T02:14:05;99610.22;;;11.83;100.00
20019;BME280;10170;42.502;26.526;2022-11-06T02:16:50;99604.47;;;11.48;100.00
20019;BME280;10170;42.502;26.526;2022-11-06T02:19:58;99596.38;;;11.30;100.00
20019;BME280;10170;42.502;26.526;2022-11-06T02:27:45;99604.88;;;11.01;100.00
20019;BME280;10170;42.502;26.526;2022-11-06T02:30:14;99602.25;;;10.95;100.00
20019;BME280;10170;42.502;26.526;2022-11-06T02:32:58;99604.72;;;10.83;100.00
20019;BME280;10170;42.502;26.526;2022-11-06T02:36:06;99609.63;;;10.80;100.00
20019;BME280;10170;42.502;26.526;2022-11-06T02:38:31;99605.44;;;11.16;100.00
20019;BME280;10170;42.502;26.526;2022-11-06T02:41:03;99610.28;;;11.26;100.00
20019;BME280;10170;42.502;26.526;2022-11-06T02:43:36;99605.44;;;11.16;100.00
20019;BME280;10170;42.502;26.526;2022-11-06T02:46:14;99599.50;;;11.08;100.00
20019;BME280;10170;42.502;26.526;2022-11-06T02:48:46;99600.34;;;11.15;100.00
20019;BME280;10170;42.502;26.526;2022-11-06T02:51:17;99602.31;;;11.26;100.00
20019;BME280;10170;42.502;26.526;2022-11-06T02:53:47;99602.97;;;11.21;100.00
20019;BME280;10170;42.502;26.526;2022-11-06T02:56:17;99593.63;;;10.99;100.00
20019;BME280;10170;42.502;26.526;2022-11-06T02:59:03;99591.97;;;11.05;100.00
20019;BME280;10170;42.502;26.526;2022-11-06T03:01:37;99591.66;;;11.32;100.00
20019;BME280;10170;42.502;26.526;2022-11-06T03:04:11;99588.34;;;11.37;100.00
20019;BME280;10170;42.502;26.526;2022-11-06T03:06:44;99592.41;;;11.46;100.00
20019;BME280;10170;42.502;26.526;2022-11-06T03:09:21;99593.84;;;11.48;100.00
20019;BME280;10170;42.502;26.526;2022-11-06T03:11:57;99594.84;;;11.47;100.00
20019;BME280;10170;42.502;26.526;2022-11-06T03:14:32;99592.94;;;11.61;100.00
20019;BME280;10170;42.502;26.526;2022-11-06T03:22:34;99591.09;;;11.68;100.00
20019;BME280;10170;42.502;26.526;2022-11-06T03:25:22;99591.47;;;11.72;100.00
20019;BME280;10170;42.502;26.526;2022-11-06T03:28:47;99590.06;;;11.62;100.00
20019;BME280;10170;42.502;26.526;2022-11-06T03:30:56;99581.69;;;11.59;100.00
20019;BME280;10170;42.502;26.526;2022-11-06T03:33:42;99596.81;;;11.72;100.00
20019;BME280;10170;42.502;26.526;2022-11-06T03:36:41;99596.13;;;11.76;100.00
20019;BME280;10170;42.502;26.526;2022-11-06T03:39:24;99587.69;;;11.86;100.00
20019;BME280;10170;42.502;26.526;2022-11-06T03:42:01;99589.88;;;11.95;100.00
20019;BME280;10170;42.502;26.526;2022-11-06T03:44:32;99577.97;;;11.98;100.00
20019;BME280;10170;42.502;26.526;2022-11-06T03:47:30;99591.06;;;11.99;100.00
20019;BME280;10170;42.502;26.526;2022-11-06T03:50:02;99588.38;;;12.06;100.00
20019;BME280;10170;42.502;26.526;2022-11-06T03:52:42;99584.25;;;12.10;100.00
20019;BME280;10170;42.502;26.526;2022-11-06T03:55:16;99585.53;;;12.01;100.00
20019;BME280;10170;42.502;26.526;2022-11-06T03:57:49;99585.63;;;11.88;100.00
20019;BME280;10170;42.502;26.526;2022-11-06T04:00:18;99595.69;;;12.10;100.00
20019;BME280;10170;42.502;26.526;2022-11-06T04:02:54;99598.22;;;12.05;100.00
20019;BME280;10170;42.502;26.526;2022-11-06T04:05:37;99580.59;;;11.73;100.00
20019;BME280;10170;42.502;26.526;2022-11-06T04:08:06;99596.13;;;11.76;100.00
20019;BME280;10170;42.502;26.526;2022-11-06T04:10:58;99594.22;;;11.52;100.00
20019;BME280;10170;42.502;26.526;2022-11-06T04:13:46;99594.06;;;11.47;100.00
20019;BME280;10170;42.502;26.526;2022-11-06T04:16:24;99592.56;;;11.57;100.00
20019;BME280;10170;42.502;26.526;2022-11-06T04:18:52;99593.69;;;11.75;100.00
20019;BME280;10170;42.502;26.526;2022-11-06T04:24:05;99598.09;;;11.94;100.00
20019;BME280;10170;42.502;26.526;2022-11-06T04:35:23;99597.56;;;12.10;100.00
20019;BME280;10170;42.502;26.526;2022-11-06T04:38:57;99595.47;;;12.12;100.00
20019;BME280;10170;42.502;26.526;2022-11-06T04:43:48;99590.38;;;12.10;100.00
20019;BME280;10170;42.502;26.526;2022-11-06T04:46:21;99595.09;;;12.08;100.00
20019;BME280;10170;42.502;26.526;2022-11-06T04:48:49;99596.41;;;11.99;100.00
20019;BME280;10170;42.502;26.526;2022-11-06T04:51:20;99601.03;;;12.10;100.00
20019;BME280;10170;42.502;26.526;2022-11-06T04:53:50;99603.47;;;12.12;100.00
20019;BME280;10170;42.502;26.526;2022-11-06T04:56:26;99605.59;;;12.03;100.00
20019;BME280;10170;42.502;26.526;2022-11-06T04:58:55;99603.81;;;11.97;100.00
20019;BME280;10170;42.502;26.526;2022-11-06T05:01:22;99601.91;;;12.04;100.00
20019;BME280;10170;42.502;26.526;2022-11-06T05:03:49;99600.88;;;12.05;100.00
20019;BME280;10170;42.502;26.526;2022-11-06T05:06:16;99603.69;;;12.10;100.00
20019;BME280;10170;42.502;26.526;2022-11-06T05:08:43;99610.00;;;12.16;100.00
20019;BME280;10170;42.502;26.526;2022-11-06T05:11:11;99611.00;;;12.21;100.00
20019;BME280;10170;42.502;26.526;2022-11-06T05:13:38;99595.16;;;12.02;100.00
20019;BME280;10170;42.502;26.526;2022-11-06T05:16:05;99605.94;;;12.13;100.00
20019;BME280;10170;42.502;26.526;2022-11-06T05:18:32;99613.03;;;12.26;100.00
20019;BME280;10170;42.502;26.526;2022-11-06T05:21:00;99613.28;;;12.42;100.00
20019;BME280;10170;42.502;26.526;2022-11-06T05:23:45;99611.06;;;12.39;100.00
20019;BME280;10170;42.502;26.526;2022-11-06T05:26:13;99620.63;;;12.47;100.00
20019;BME280;10170;42.502;26.526;2022-11-06T05:28:39;99623.16;;;12.42;100.00
20019;BME280;10170;42.502;26.526;2022-11-06T05:31:06;99637.03;;;12.50;100.00
20019;BME280;10170;42.502;26.526;2022-11-06T05:33:33;99634.88;;;12.59;100.00
20019;BME280;10170;42.502;26.526;2022-11-06T05:36:03;99650.44;;;12.62;100.00
20019;BME280;10170;42.502;26.526;2022-11-06T05:38:31;99643.19;;;12.51;100.00
20019;BME280;10170;42.502;26.526;2022-11-06T05:40:58;99647.31;;;12.47;100.00
20019;BME280;10170;42.502;26.526;2022-11-06T05:43:25;99651.38;;;12.49;100.00
20019;BME280;10170;42.502;26.526;2022-11-06T05:45:52;99643.13;;;12.33;100.00
20019;BME280;10170;42.502;26.526;2022-11-06T05:48:19;99640.66;;;12.31;100.00
20019;BME280;10170;42.502;26.526;2022-11-06T05:50:45;99657.09;;;12.53;100.00
20019;BME280;10170;42.502;26.526;2022-11-06T05:53:12;99652.72;;;12.40;100.00
20019;BME280;10170;42.502;26.526;2022-11-06T05:55:39;99654.97;;;12.37;100.00
20019;BME280;10170;42.502;26.526;2022-11-06T05:58:06;99666.34;;;12.50;100.00
20019;BME280;10170;42.502;26.526;2022-11-06T06:00:32;99672.59;;;12.62;100.00
20019;BME280;10170;42.502;26.526;2022-11-06T06:03:00;99655.41;;;12.58;100.00
20019;BME280;10170;42.502;26.526;2022-11-06T06:05:27;99666.25;;;12.63;100.00
20019;BME280;10170;42.502;26.526;2022-11-06T06:07:54;99663.59;;;12.63;100.00
20019;BME280;10170;42.502;26.526;2022-11-06T06:10:21;99667.81;;;12.96;100.00
20019;BME280;10170;42.502;26.526;2022-11-06T06:12:50;99663.81;;;12.80;100.00
20019;BME280;10170;42.502;26.526;2022-11-06T06:15:17;99673.09;;;12.78;100.00
20019;BME280;10170;42.502;26.526;2022-11-06T06:17:44;99676.84;;;12.70;100.00
20019;BME280;10170;42.502;26.526;2022-11-06T06:20:12;99681.53;;;12.74;100.00
20019;BME280;10170;42.502;26.526;2022-11-06T06:22:39;99676.41;;;12.73;100.00
20019;BME280;10170;42.502;26.526;2022-11-06T06:25:06;99673.56;;;12.93;100.00
20019;BME280;10170;42.502;26.526;2022-11-06T06:27:46;99681.94;;;12.96;100.00
20019;BME280;10170;42.502;26.526;2022-11-06T06:30:13;99683.94;;;13.25;100.00
20019;BME280;10170;42.502;26.526;2022-11-06T06:32:40;99690.13;;;13.44;100.00
20019;BME280;10170;42.502;26.526;2022-11-06T06:35:07;99689.50;;;13.78;100.00
20019;BME280;10170;42.502;26.526;2022-11-06T06:37:34;99686.97;;;13.95;100.00
20019;BME280;10170;42.502;26.526;2022-11-06T06:40:00;99688.72;;;13.89;100.00
20019;BME280;10170;42.502;26.526;2022-11-06T06:42:28;99699.56;;;13.94;100.00
20019;BME280;10170;42.502;26.526;2022-11-06T06:44:57;99699.00;;;14.04;100.00
20019;BME280;10170;42.502;26.526;2022-11-06T06:47:23;99699.44;;;14.01;100.00
20019;BME280;10170;42.502;26.526;2022-11-06T06:49:50;99701.50;;;14.17;100.00
20019;BME280;10170;42.502;26.526;2022-11-06T06:52:17;99703.19;;;14.29;100.00
20019;BME280;10170;42.502;26.526;2022-11-06T06:54:43;99703.84;;;14.25;100.00
20019;BME280;10170;42.502;26.526;2022-11-06T06:57:10;99703.91;;;14.36;100.00
20019;BME280;10170;42.502;26.526;2022-11-06T06:59:37;99703.66;;;14.38;100.00
20019;BME280;10170;42.502;26.526;2022-11-06T07:02:04;99699.53;;;14.53;100.00
20019;BME280;10170;42.502;26.526;2022-11-06T07:04:30;99703.13;;;14.47;100.00
20019;BME280;10170;42.502;26.526;2022-11-06T07:06:57;99700.50;;;14.82;100.00
20019;BME280;10170;42.502;26.526;2022-11-06T07:09:24;99699.81;;;14.87;100.00
20019;BME280;10170;42.502;26.526;2022-11-06T07:11:50;99707.03;;;14.98;100.00
20019;BME280;10170;42.502;26.526;2022-11-06T07:14:17;99703.53;;;15.09;100.00
20019;BME280;10170;42.502;26.526;2022-11-06T07:16:44;99710.03;;;15.24;100.00
20019;BME280;10170;42.502;26.526;2022-11-06T07:19:17;99709.34;;;15.40;100.00
20019;BME280;10170;42.502;26.526;2022-11-06T07:21:44;99707.56;;;15.69;100.00
20019;BME280;10170;42.502;26.526;2022-11-06T07:24:11;99672.97;;;15.56;100.00
20019;BME280;10170;42.502;26.526;2022-11-06T07:26:37;99711.38;;;16.13;100.00
20019;BME280;10170;42.502;26.526;2022-11-06T07:29:04;99704.91;;;16.25;100.00
20019;BME280;10170;42.502;26.526;2022-11-06T07:31:31;99710.44;;;16.35;100.00
20019;BME280;10170;42.502;26.526;2022-11-06T07:33:57;99710.19;;;16.37;100.00
20019;BME280;10170;42.502;26.526;2022-11-06T07:36:24;99713.41;;;16.22;100.00
20019;BME280;10170;42.502;26.526;2022-11-06T07:38:51;99709.78;;;16.28;100.00
20019;BME280;10170;42.502;26.526;2022-11-06T07:41:18;99704.25;;;16.18;100.00
20019;BME280;10170;42.502;26.526;2022-11-06T07:43:47;99712.38;;;16.23;100.00
20019;BME280;10170;42.502;26.526;2022-11-06T07:46:14;99713.91;;;16.19;100.00
20019;BME280;10170;42.502;26.526;2022-11-06T07:48:41;99710.97;;;16.21;100.00
20019;BME280;10170;42.502;26.526;2022-11-06T07:51:09;99705.38;;;16.22;100.00
20019;BME280;10170;42.502;26.526;2022-11-06T07:53:37;99722.16;;;16.29;100.00
20019;BME280;10170;42.502;26.526;2022-11-06T07:56:04;99716.97;;;16.11;100.00
20019;BME280;10170;42.502;26.526;2022-11-06T07:58:32;99709.88;;;16.05;100.00
20019;BME280;10170;42.502;26.526;2022-11-06T08:00:58;99716.88;;;16.06;100.00
20019;BME280;10170;42.502;26.526;2022-11-06T08:03:26;99717.78;;;16.12;100.00
20019;BME280;10170;42.502;26.526;2022-11-06T08:05:56;99724.69;;;16.36;100.00
20019;BME280;10170;42.502;26.526;2022-11-06T08:08:23;99713.53;;;16.44;100.00
20019;BME280;10170;42.502;26.526;2022-11-06T08:10:50;99722.56;;;16.38;100.00
20019;BME280;10170;42.502;26.526;2022-11-06T08:13:19;99718.25;;;16.65;100.00
20019;BME280;10170;42.502;26.526;2022-11-06T08:15:46;99715.91;;;16.68;100.00
20019;BME280;10170;42.502;26.526;2022-11-06T08:18:12;99716.47;;;16.70;100.00
20019;BME280;10170;42.502;26.526;2022-11-06T08:20:40;99708.94;;;16.72;100.00
20019;BME280;10170;42.502;26.526;2022-11-06T08:23:09;99716.47;;;16.70;100.00
20019;BME280;10170;42.502;26.526;2022-11-06T08:25:36;99719.63;;;16.84;100.00
20019;BME280;10170;42.502;26.526;2022-11-06T08:28:03;99726.78;;;16.95;100.00
20019;BME280;10170;42.502;26.526;2022-11-06T08:30:30;99720.72;;;17.21;100.00
20019;BME280;10170;42.502;26.526;2022-11-06T08:33:05;99723.66;;;17.36;100.00
20019;BME280;10170;42.502;26.526;2022-11-06T08:35:35;99715.00;;;17.51;100.00
20019;BME280;10170;42.502;26.526;2022-11-06T08:38:02;99718.91;;;17.60;100.00
20019;BME280;10170;42.502;26.526;2022-11-06T08:40:30;99724.13;;;17.71;100.00
20019;BME280;10170;42.502;26.526;2022-11-06T08:43:05;99721.91;;;17.63;100.00
20019;BME280;10170;42.502;26.526;2022-11-06T08:45:35;99722.31;;;17.77;100.00
20019;BME280;10170;42.502;26.526;2022-11-06T08:48:03;99717.47;;;17.74;100.00
20019;BME280;10170;42.502;26.526;2022-11-06T08:50:30;99712.34;;;17.72;100.00
20019;BME280;10170;42.502;26.526;2022-11-06T08:52:58;99724.88;;;18.10;100.00
20019;BME280;10170;42.502;26.526;2022-11-06T08:55:26;99717.97;;;18.19;100.00
20019;BME280;10170;42.502;26.526;2022-11-06T08:57:53;99733.16;;;18.30;100.00
20019;BME280;10170;42.502;26.526;2022-11-06T09:00:21;99726.41;;;18.01;100.00
20019;BME280;10170;42.502;26.526;2022-11-06T09:02:47;99732.19;;;18.15;100.00
20019;BME280;10170;42.502;26.526;2022-11-06T09:05:14;99730.31;;;18.15;100.00
20019;BME280;10170;42.502;26.526;2022-11-06T09:07:41;99732.31;;;18.25;100.00
20019;BME280;10170;42.502;26.526;2022-11-06T09:10:08;99735.47;;;18.43;100.00
20019;BME280;10170;42.502;26.526;2022-11-06T09:12:34;99732.50;;;18.71;100.00
20019;BME280;10170;42.502;26.526;2022-11-06T09:15:01;99728.81;;;19.14;100.00
20019;BME280;10170;42.502;26.526;2022-11-06T09:17:28;99734.72;;;19.48;100.00
20019;BME280;10170;42.502;26.526;2022-11-06T09:19:54;99730.19;;;19.63;100.00
20019;BME280;10170;42.502;26.526;2022-11-06T09:22:21;99740.56;;;19.91;100.00
20019;BME280;10170;42.502;26.526;2022-11-06T09:24:48;99733.91;;;20.09;100.00
20019;BME280;10170;42.502;26.526;2022-11-06T09:27:29;99731.31;;;20.39;100.00
20019;BME280;10170;42.502;26.526;2022-11-06T09:29:55;99734.00;;;20.54;100.00
20019;BME280;10170;42.502;26.526;2022-11-06T09:32:22;99722.69;;;20.52;100.00
20019;BME280;10170;42.502;26.526;2022-11-06T09:34:50;99723.44;;;20.28;100.00
20019;BME280;10170;42.502;26.526;2022-11-06T09:37:16;99720.91;;;20.01;100.00
20019;BME280;10170;42.502;26.526;2022-11-06T09:39:43;99718.41;;;19.84;100.00
20019;BME280;10170;42.502;26.526;2022-11-06T09:47:36;99713.97;;;19.53;100.00
20019;BME280;10170;42.502;26.526;2022-11-06T09:50:10;99710.56;;;19.73;100.00
20019;BME280;10170;42.502;26.526;2022-11-06T09:52:49;99706.47;;;19.65;100.00
20019;BME280;10170;42.502;26.526;2022-11-06T09:55:23;99706.81;;;19.84;100.00
20019;BME280;10170;42.502;26.526;2022-11-06T09:57:56;99708.09;;;20.43;100.00
20019;BME280;10170;42.502;26.526;2022-11-06T10:00:24;99706.47;;;20.57;100.00
20019;BME280;10170;42.502;26.526;2022-11-06T10:02:54;99700.50;;;20.90;100.00
20019;BME280;10170;42.502;26.526;2022-11-06T10:05:33;99703.50;;;20.64;100.00
20019;BME280;10170;42.502;26.526;2022-11-06T10:08:08;99705.41;;;20.78;100.00
20019;BME280;10170;42.502;26.526;2022-11-06T10:19:14;99685.09;;;20.26;100.00
20019;BME280;10170;42.502;26.526;2022-11-06T10:27:26;99701.06;;;20.62;100.00
20019;BME280;10170;42.502;26.526;2022-11-06T10:30:04;99696.47;;;20.53;100.00
20019;BME280;10170;42.502;26.526;2022-11-06T10:38:00;99691.59;;;20.40;100.00
20019;BME280;10170;42.502;26.526;2022-11-06T10:40:31;99680.25;;;20.43;100.00
20019;BME280;10170;42.502;26.526;2022-11-06T10:43:02;99680.81;;;20.45;100.00
20019;BME280;10170;42.502;26.526;2022-11-06T10:45:33;99675.38;;;20.30;100.00
20019;BME280;10170;42.502;26.526;2022-11-06T10:48:13;99669.19;;;20.49;100.00
20019;BME280;10170;42.502;26.526;2022-11-06T10:50:50;99675.13;;;20.46;100.00
20019;BME280;10170;42.502;26.526;2022-11-06T10:53:33;99677.03;;;20.56;100.00
20019;BME280;10170;42.502;26.526;2022-11-06T10:56:26;99672.44;;;20.46;100.00
20019;BME280;10170;42.502;26.526;2022-11-06T10:58:58;99666.75;;;20.33;100.00
20019;BME280;10170;42.502;26.526;2022-11-06T11:01:25;99659.72;;;20.27;100.00
20019;BME280;10170;42.502;26.526;2022-11-06T11:03:52;99657.56;;;20.59;100.00
20019;BME280;10170;42.502;26.526;2022-11-06T11:06:19;99657.00;;;20.62;100.00
20019;BME280;10170;42.502;26.526;2022-11-06T11:08:47;99650.81;;;20.61;100.00
20019;BME280;10170;42.502;26.526;2022-11-06T11:16:25;99646.50;;;20.75;100.00
20019;BME280;10170;42.502;26.526;2022-11-06T11:18:52;99641.06;;;20.65;100.00
20019;BME280;10170;42.502;26.526;2022-11-06T11:21:21;99647.00;;;20.72;100.00
20019;BME280;10170;42.502;26.526;2022-11-06T11:24:08;99643.78;;;20.75;100.00
20019;BME280;10170;42.502;26.526;2022-11-06T11:26:42;99643.22;;;20.38;100.00
20019;BME280;10170;42.502;26.526;2022-11-06T11:29:28;99645.41;;;20.46;100.00
20019;BME280;10170;42.502;26.526;2022-11-06T11:31:57;99639.47;;;20.34;100.00
20019;BME280;10170;42.502;26.526;2022-11-06T11:34:27;99640.22;;;20.15;100.00
20019;BME280;10170;42.502;26.526;2022-11-06T11:39:27;99631.03;;;20.11;100.00
20019;BME280;10170;42.502;26.526;2022-11-06T11:44:42;99642.91;;;20.05;100.00
20019;BME280;10170;42.502;26.526;2022-11-06T11:47:20;99641.28;;;20.09;100.00
20019;BME280;10170;42.502;26.526;2022-11-06T11:49:47;99642.38;;;20.08;100.00
20019;BME280;10170;42.502;26.526;2022-11-06T11:52:19;99650.53;;;20.18;100.00
20019;BME280;10170;42.502;26.526;2022-11-06T11:54:51;99642.16;;;20.19;100.00
20019;BME280;10170;42.502;26.526;2022-11-06T11:57:22;99633.25;;;20.29;100.00
20019;BME280;10170;42.502;26.526;2022-11-06T11:59:58;99641.34;;;20.24;100.00
20019;BME280;10170;42.502;26.526;2022-11-06T12:05:20;99636.75;;;20.29;100.00
20019;BME280;10170;42.502;26.526;2022-11-06T12:07:54;99645.13;;;20.28;100.00
20019;BME280;10170;42.502;26.526;2022-11-06T12:10:25;99634.78;;;20.00;100.00
20019;BME280;10170;42.502;26.526;2022-11-06T12:12:54;99635.88;;;19.99;100.00
20019;BME280;10170;42.502;26.526;2022-11-06T12:15:39;99629.66;;;20.08;100.00
20019;BME280;10170;42.502;26.526;2022-11-06T12:18:15;99626.97;;;19.98;100.00
20019;BME280;10170;42.502;26.526;2022-11-06T12:28:48;99647.13;;;19.70;100.00
20019;BME280;10170;42.502;26.526;2022-11-06T12:34:00;99641.47;;;19.72;100.00
20019;BME280;10170;42.502;26.526;2022-11-06T12:36:35;99653.84;;;19.63;100.00
20019;BME280;10170;42.502;26.526;2022-11-06T12:39:15;99640.56;;;19.41;100.00
20019;BME280;10170;42.502;26.526;2022-11-06T12:41:47;99638.38;;;19.43;100.00
20019;BME280;10170;42.502;26.526;2022-11-06T12:44:17;99634.09;;;19.47;100.00
20019;BME280;10170;42.502;26.526;2022-11-06T12:46:52;99638.66;;;19.42;100.00
20019;BME280;10170;42.502;26.526;2022-11-06T12:55:34;99644.19;;;19.20;100.00
20019;BME280;10170;42.502;26.526;2022-11-06T12:58:34;99636.94;;;19.26;100.00
20019;BME280;10170;42.502;26.526;2022-11-06T13:01:06;99644.72;;;19.22;100.00
20019;BME280;10170;42.502;26.526;2022-11-06T13:06:29;99623.84;;;18.98;100.00
20019;BME280;10170;42.502;26.526;2022-11-06T13:09:12;99639.88;;;18.77;100.00
20019;BME280;10170;42.502;26.526;2022-11-06T13:14:55;99643.66;;;18.76;100.00
20019;BME280;10170;42.502;26.526;2022-11-06T13:22:48;99633.00;;;18.55;100.00
20019;BME280;10170;42.502;26.526;2022-11-06T13:25:23;99631.84;;;18.46;100.00
20019;BME280;10170;42.502;26.526;2022-11-06T13:27:58;99630.13;;;18.40;100.00
20019;BME280;10170;42.502;26.526;2022-11-06T13:30:27;99638.94;;;18.30;100.00
20019;BME280;10170;42.502;26.526;2022-11-06T13:35:44;99632.91;;;18.18;100.00
20019;BME280;10170;42.502;26.526;2022-11-06T13:38:19;99625.38;;;18.20;100.00
20019;BME280;10170;42.502;26.526;2022-11-06T13:40:50;99638.25;;;18.13;100.00
20019;BME280;10170;42.502;26.526;2022-11-06T13:43:27;99631.25;;;18.12;100.00
20019;BME280;10170;42.502;26.526;2022-11-06T13:46:00;99627.09;;;18.00;100.00
20019;BME280;10170;42.502;26.526;2022-11-06T14:05:29;99636.16;;;17.67;100.00
20019;BME280;10170;42.502;26.526;2022-11-06T14:08:02;99632.69;;;17.71;100.00
20019;BME280;10170;42.502;26.526;2022-11-06T14:10:34;99654.09;;;17.61;100.00
20019;BME280;10170;42.502;26.526;2022-11-06T14:13:04;99627.31;;;17.50;100.00
20019;BME280;10170;42.502;26.526;2022-11-06T14:15:35;99635.56;;;17.43;100.00
20019;BME280;10170;42.502;26.526;2022-11-06T14:18:04;99628.56;;;17.42;100.00
20019;BME280;10170;42.502;26.526;2022-11-06T14:20:32;99631.19;;;17.37;100.00
20019;BME280;10170;42.502;26.526;2022-11-06T14:28:32;99636.84;;;17.19;100.00
20019;BME280;10170;42.502;26.526;2022-11-06T14:30:59;99629.09;;;17.23;100.00
20019;BME280;10170;42.502;26.526;2022-11-06T14:38:50;99636.72;;;17.09;100.00
20019;BME280;10170;42.502;26.526;2022-11-06T14:44:05;99646.53;;;16.99;100.00
20019;BME280;10170;42.502;26.526;2022-11-06T14:46:32;99609.69;;;16.77;100.00
20019;BME280;10170;42.502;26.526;2022-11-06T14:49:20;99634.50;;;16.84;100.00
20019;BME280;10170;42.502;26.526;2022-11-06T14:51:57;99636.94;;;16.86;100.00
20019;BME280;10170;42.502;26.526;2022-11-06T14:54:25;99628.06;;;16.85;100.00
20019;BME280;10170;42.502;26.526;2022-11-06T14:56:53;99634.13;;;16.76;100.00
20019;BME280;10170;42.502;26.526;2022-11-06T14:59:30;99634.66;;;16.78;100.00
20019;BME280;10170;42.502;26.526;2022-11-06T15:04:41;99638.50;;;16.65;100.00
20019;BME280;10170;42.502;26.526;2022-11-06T15:15:45;99651.19;;;16.53;100.00
20019;BME280;10170;42.502;26.526;2022-11-06T15:18:17;99638.28;;;16.50;100.00